sensor_id;sensor_type;location;lat;lon;timestamp;temperature;humidity
57030;DHT22;42920;45.306;20.448;2023-02-15T00:01:29;102.80;2227.20
57030;DHT22;42920;45.306;20.448;2023-02-15T00:03:55;102.90;2227.20
57030;DHT22;42920;45.306;20.448;2023-02-15T00:06:21;103.00;2227.20
57030;DHT22;42920;45.306;20.448;2023-02-15T00:08:47;102.90;2227.20
57030;DHT22;42920;45.306;20.448;2023-02-15T00:11:14;102.90;2227.20
57030;DHT22;42920;45.306;20.448;2023-02-15T00:13:40;102.80;2227.20
57030;DHT22;42920;45.306;20.448;2023-02-15T00:16:12;102.80;2227.20
57030;DHT22;42920;45.306;20.448;2023-02-15T00:18:38;102.80;2227.20
57030;DHT22;42920;45.306;20.448;2023-02-15T00:21:08;102.70;2227.20
57030;DHT22;42920;45.306;20.448;2023-02-15T00:23:34;102.70;2227.20
57030;DHT22;42920;45.306;20.448;2023-02-15T00:26:06;102.50;2227.20
57030;DHT22;42920;45.306;20.448;2023-02-15T00:28:32;102.50;2227.20
57030;DHT22;42920;45.306;20.448;2023-02-15T00:31:08;102.40;2227.20
57030;DHT22;42920;45.306;20.448;2023-02-15T00:33:34;102.50;2227.20
57030;DHT22;42920;45.306;20.448;2023-02-15T00:35:59;102.40;2227.20
57030;DHT22;42920;45.306;20.448;2023-02-15T00:38:29;77.70;2227.20
57030;DHT22;42920;45.306;20.448;2023-02-15T00:40:56;77.70;2227.20
57030;DHT22;42920;45.306;20.448;2023-02-15T00:43:23;77.70;2227.20
57030;DHT22;42920;45.306;20.448;2023-02-15T00:45:48;77.70;2227.20
57030;DHT22;42920;45.306;20.448;2023-02-15T00:48:14;77.70;2227.20
57030;DHT22;42920;45.306;20.448;2023-02-15T00:50:40;77.70;2227.20
57030;DHT22;42920;45.306;20.448;2023-02-15T00:53:06;102.40;2227.20
57030;DHT22;42920;45.306;20.448;2023-02-15T00:55:31;77.70;2227.20
57030;DHT22;42920;45.306;20.448;2023-02-15T00:57:57;77.70;2227.20
57030;DHT22;42920;45.306;20.448;2023-02-15T01:00:23;102.50;2227.20
57030;DHT22;42920;45.306;20.448;2023-02-15T01:02:48;102.50;2227.20
57030;DHT22;42920;45.306;20.448;2023-02-15T01:05:14;102.50;2227.20
57030;DHT22;42920;45.306;20.448;2023-02-15T01:07:39;102.50;2227.20
57030;DHT22;42920;45.306;20.448;2023-02-15T01:10:06;102.50;2227.20
57030;DHT22;42920;45.306;20.448;2023-02-15T01:12:33;102.60;2227.20
57030;DHT22;42920;45.306;20.448;2023-02-15T01:14:59;102.60;2227.20
57030;DHT22;42920;45.306;20.448;2023-02-15T01:17:24;102.70;2227.20
57030;DHT22;42920;45.306;20.448;2023-02-15T01:19:50;102.80;2227.20
57030;DHT22;42920;45.306;20.448;2023-02-15T01:22:17;102.80;2227.20
57030;DHT22;42920;45.306;20.448;2023-02-15T01:24:43;102.80;2227.20
57030;DHT22;42920;45.306;20.448;2023-02-15T01:27:09;102.80;2227.20
57030;DHT22;42920;45.306;20.448;2023-02-15T01:29:35;102.80;2227.20
57030;DHT22;42920;45.306;20.448;2023-02-15T01:32:00;102.70;2227.20
57030;DHT22;42920;45.306;20.448;2023-02-15T01:34:26;102.80;2227.20
57030;DHT22;42920;45.306;20.448;2023-02-15T01:36:52;102.80;2227.20
57030;DHT22;42920;45.306;20.448;2023-02-15T01:39:17;102.80;2227.20
57030;DHT22;42920;45.306;20.448;2023-02-15T01:41:43;102.80;2227.20
57030;DHT22;42920;45.306;20.448;2023-02-15T01:47:10;102.80;2227.20
57030;DHT22;42920;45.306;20.448;2023-02-15T01:49:38;102.80;2227.20
57030;DHT22;42920;45.306;20.448;2023-02-15T01:52:07;102.80;2227.20
57030;DHT22;42920;45.306;20.448;2023-02-15T01:54:35;102.80;2227.20
57030;DHT22;42920;45.306;20.448;2023-02-15T01:57:05;102.80;2227.20
57030;DHT22;42920;45.306;20.448;2023-02-15T01:59:35;102.90;2227.20
57030;DHT22;42920;45.306;20.448;2023-02-15T02:02:05;102.90;2227.20
57030;DHT22;42920;45.306;20.448;2023-02-15T02:04:47;103.00;2227.20
57030;DHT22;42920;45.306;20.448;2023-02-15T02:07:14;102.90;2227.20
57030;DHT22;42920;45.306;20.448;2023-02-15T02:09:41;103.00;2227.20
57030;DHT22;42920;45.306;20.448;2023-02-15T02:12:07;102.80;2227.20
57030;DHT22;42920;45.306;20.448;2023-02-15T02:14:33;102.80;2227.20
57030;DHT22;42920;45.306;20.448;2023-02-15T02:45:04;102.60;2227.20
57030;DHT22;42920;45.306;20.448;2023-02-15T02:47:57;102.70;2227.20
57030;DHT22;42920;45.306;20.448;2023-02-15T02:50:27;102.80;2227.20
57030;DHT22;42920;45.306;20.448;2023-02-15T02:52:55;102.80;2227.20
57030;DHT22;42920;45.306;20.448;2023-02-15T02:55:43;102.80;2227.20
57030;DHT22;42920;45.306;20.448;2023-02-15T03:00:51;102.80;2227.20
57030;DHT22;42920;45.306;20.448;2023-02-15T03:03:36;102.80;2227.20
57030;DHT22;42920;45.306;20.448;2023-02-15T03:06:06;102.80;2227.20
57030;DHT22;42920;45.306;20.448;2023-02-15T03:08:38;102.70;2227.20
57030;DHT22;42920;45.306;20.448;2023-02-15T03:11:06;102.70;2227.20
57030;DHT22;42920;45.306;20.448;2023-02-15T03:13:32;102.80;2227.20
57030;DHT22;42920;45.306;20.448;2023-02-15T03:16:00;102.80;2227.20
57030;DHT22;42920;45.306;20.448;2023-02-15T03:18:48;102.70;2227.20
57030;DHT22;42920;45.306;20.448;2023-02-15T03:21:42;102.50;2227.20
57030;DHT22;42920;45.306;20.448;2023-02-15T03:24:12;77.70;2227.20
57030;DHT22;42920;45.306;20.448;2023-02-15T03:26:39;77.60;2227.20
57030;DHT22;42920;45.306;20.448;2023-02-15T03:29:07;77.60;2227.20
57030;DHT22;42920;45.306;20.448;2023-02-15T03:31:38;77.60;2227.20
57030;DHT22;42920;45.306;20.448;2023-02-15T03:34:09;77.70;2227.20
57030;DHT22;42920;45.306;20.448;2023-02-15T03:37:04;77.70;2227.20
57030;DHT22;42920;45.306;20.448;2023-02-15T03:44:56;77.70;2227.20
57030;DHT22;42920;45.306;20.448;2023-02-15T03:47:34;77.70;2227.20
57030;DHT22;42920;45.306;20.448;2023-02-15T03:50:10;77.70;2227.20
57030;DHT22;42920;45.306;20.448;2023-02-15T03:52:58;77.70;2227.20
57030;DHT22;42920;45.306;20.448;2023-02-15T03:55:25;102.40;2227.20
57030;DHT22;42920;45.306;20.448;2023-02-15T03:57:51;102.40;2227.20
57030;DHT22;42920;45.306;20.448;2023-02-15T04:00:38;102.40;2227.20
57030;DHT22;42920;45.306;20.448;2023-02-15T04:03:36;102.40;2227.20
57030;DHT22;42920;45.306;20.448;2023-02-15T04:06:04;102.40;2227.20
57030;DHT22;42920;45.306;20.448;2023-02-15T04:08:29;102.50;2227.20
57030;DHT22;42920;45.306;20.448;2023-02-15T04:11:14;102.50;2227.20
57030;DHT22;42920;45.306;20.448;2023-02-15T04:13:39;102.40;2227.20
57030;DHT22;42920;45.306;20.448;2023-02-15T04:16:05;77.70;2227.20
57030;DHT22;42920;45.306;20.448;2023-02-15T04:18:32;77.70;2227.20
57030;DHT22;42920;45.306;20.448;2023-02-15T04:21:17;77.60;2227.20
57030;DHT22;42920;45.306;20.448;2023-02-15T04:24:02;77.60;2227.20
57030;DHT22;42920;45.306;20.448;2023-02-15T04:26:47;77.50;2227.20
57030;DHT22;42920;45.306;20.448;2023-02-15T04:29:14;77.40;2227.20
57030;DHT22;42920;45.306;20.448;2023-02-15T04:31:41;77.40;2227.20
57030;DHT22;42920;45.306;20.448;2023-02-15T04:34:08;77.40;2227.20
57030;DHT22;42920;45.306;20.448;2023-02-15T04:36:35;77.20;2227.20
57030;DHT22;42920;45.306;20.448;2023-02-15T04:39:00;77.50;2227.20
57030;DHT22;42920;45.306;20.448;2023-02-15T04:41:26;77.60;2227.20
57030;DHT22;42920;45.306;20.448;2023-02-15T04:43:51;77.50;2227.20
57030;DHT22;42920;45.306;20.448;2023-02-15T04:46:17;77.50;2227.20
57030;DHT22;42920;45.306;20.448;2023-02-15T04:48:43;77.60;2227.20
57030;DHT22;42920;45.306;20.448;2023-02-15T04:51:09;77.60;2227.20
57030;DHT22;42920;45.306;20.448;2023-02-15T04:53:35;77.40;2227.20
57030;DHT22;42920;45.306;20.448;2023-02-15T04:56:01;77.50;2227.20
57030;DHT22;42920;45.306;20.448;2023-02-15T04:58:27;77.40;2227.20
57030;DHT22;42920;45.306;20.448;2023-02-15T05:00:55;77.50;2227.20
57030;DHT22;42920;45.306;20.448;2023-02-15T05:03:21;77.60;2227.20
57030;DHT22;42920;45.306;20.448;2023-02-15T05:05:47;77.70;2227.20
57030;DHT22;42920;45.306;20.448;2023-02-15T05:08:13;77.70;2227.20
57030;DHT22;42920;45.306;20.448;2023-02-15T05:10:38;77.60;2227.20
57030;DHT22;42920;45.306;20.448;2023-02-15T05:13:04;102.40;2227.20
57030;DHT22;42920;45.306;20.448;2023-02-15T05:15:29;102.40;2227.20
57030;DHT22;42920;45.306;20.448;2023-02-15T05:17:55;102.40;2227.20
57030;DHT22;42920;45.306;20.448;2023-02-15T05:20:21;102.50;2227.20
57030;DHT22;42920;45.306;20.448;2023-02-15T05:22:47;102.40;2227.20
57030;DHT22;42920;45.306;20.448;2023-02-15T05:25:12;102.50;2227.20
57030;DHT22;42920;45.306;20.448;2023-02-15T05:27:56;102.40;2227.20
57030;DHT22;42920;45.306;20.448;2023-02-15T05:30:40;77.70;2227.20
57030;DHT22;42920;45.306;20.448;2023-02-15T05:33:06;77.70;2227.20
57030;DHT22;42920;45.306;20.448;2023-02-15T05:35:33;77.70;2227.20
57030;DHT22;42920;45.306;20.448;2023-02-15T05:37:59;77.70;2227.20
57030;DHT22;42920;45.306;20.448;2023-02-15T05:40:24;77.60;2227.20
57030;DHT22;42920;45.306;20.448;2023-02-15T05:42:50;77.50;2227.20
57030;DHT22;42920;45.306;20.448;2023-02-15T05:45:16;77.40;2227.20
57030;DHT22;42920;45.306;20.448;2023-02-15T05:47:42;77.40;2227.20
57030;DHT22;42920;45.306;20.448;2023-02-15T05:50:08;77.40;2227.20
57030;DHT22;42920;45.306;20.448;2023-02-15T05:52:34;77.30;2227.20
57030;DHT22;42920;45.306;20.448;2023-02-15T05:55:00;77.30;2227.20
57030;DHT22;42920;45.306;20.448;2023-02-15T05:57:27;77.30;2227.20
57030;DHT22;42920;45.306;20.448;2023-02-15T05:59:53;77.20;2227.20
57030;DHT22;42920;45.306;20.448;2023-02-15T06:02:18;77.20;2227.20
57030;DHT22;42920;45.306;20.448;2023-02-15T06:04:44;77.10;2227.20
57030;DHT22;42920;45.306;20.448;2023-02-15T06:07:10;77.20;2227.20
57030;DHT22;42920;45.306;20.448;2023-02-15T06:09:35;77.10;2227.20
57030;DHT22;42920;45.306;20.448;2023-02-15T06:12:01;77.20;2227.20
57030;DHT22;42920;45.306;20.448;2023-02-15T06:14:27;77.20;2227.20
57030;DHT22;42920;45.306;20.448;2023-02-15T06:16:52;77.30;2227.20
57030;DHT22;42920;45.306;20.448;2023-02-15T06:19:18;77.40;2227.20
57030;DHT22;42920;45.306;20.448;2023-02-15T06:21:44;77.40;2227.20
57030;DHT22;42920;45.306;20.448;2023-02-15T06:24:10;77.60;2227.20
57030;DHT22;42920;45.306;20.448;2023-02-15T06:26:35;77.70;2227.20
57030;DHT22;42920;45.306;20.448;2023-02-15T06:29:01;102.50;2227.20
57030;DHT22;42920;45.306;20.448;2023-02-15T06:31:26;102.50;2227.20
57030;DHT22;42920;45.306;20.448;2023-02-15T06:33:52;102.60;2227.20
57030;DHT22;42920;45.306;20.448;2023-02-15T06:36:18;102.50;2227.20
57030;DHT22;42920;45.306;20.448;2023-02-15T06:38:43;77.50;2227.20
57030;DHT22;42920;45.306;20.448;2023-02-15T06:41:09;77.60;2227.20
57030;DHT22;42920;45.306;20.448;2023-02-15T06:43:34;77.70;2227.20
57030;DHT22;42920;45.306;20.448;2023-02-15T06:46:00;102.40;2227.20
57030;DHT22;42920;45.306;20.448;2023-02-15T06:48:26;102.50;2227.20
57030;DHT22;42920;45.306;20.448;2023-02-15T06:50:52;102.70;2227.20
57030;DHT22;42920;45.306;20.448;2023-02-15T06:53:17;102.70;2227.20
57030;DHT22;42920;45.306;20.448;2023-02-15T06:55:43;102.50;2227.20
57030;DHT22;42920;45.306;20.448;2023-02-15T06:58:08;77.70;2227.20
57030;DHT22;42920;45.306;20.448;2023-02-15T07:00:34;102.40;2227.20
57030;DHT22;42920;45.306;20.448;2023-02-15T07:03:00;77.70;2227.20
57030;DHT22;42920;45.306;20.448;2023-02-15T07:05:27;77.70;2227.20
57030;DHT22;42920;45.306;20.448;2023-02-15T07:07:59;102.50;2227.20
57030;DHT22;42920;45.306;20.448;2023-02-15T07:10:26;102.50;2227.20
57030;DHT22;42920;45.306;20.448;2023-02-15T07:12:52;102.70;2227.20
57030;DHT22;42920;45.306;20.448;2023-02-15T07:15:19;102.80;2227.20
57030;DHT22;42920;45.306;20.448;2023-02-15T07:17:46;103.00;2227.20
57030;DHT22;42920;45.306;20.448;2023-02-15T07:20:15;103.00;2227.20
57030;DHT22;42920;45.306;20.448;2023-02-15T07:22:41;103.10;2227.20
57030;DHT22;42920;45.306;20.448;2023-02-15T07:25:09;103.20;2227.20
57030;DHT22;42920;45.306;20.448;2023-02-15T07:27:36;128.00;2252.80
57030;DHT22;42920;45.306;20.448;2023-02-15T07:30:02;128.10;2252.80
57030;DHT22;42920;45.306;20.448;2023-02-15T07:32:30;128.20;2252.80
57030;DHT22;42920;45.306;20.448;2023-02-15T07:34:56;128.20;2252.80
57030;DHT22;42920;45.306;20.448;2023-02-15T07:37:21;128.00;2252.80
57030;DHT22;42920;45.306;20.448;2023-02-15T07:39:47;128.20;2252.80
57030;DHT22;42920;45.306;20.448;2023-02-15T07:42:13;128.30;2252.80
57030;DHT22;42920;45.306;20.448;2023-02-15T07:44:38;128.40;2252.80
57030;DHT22;42920;45.306;20.448;2023-02-15T07:47:04;128.40;2252.80
57030;DHT22;42920;45.306;20.448;2023-02-15T07:49:30;128.20;2252.80
57030;DHT22;42920;45.306;20.448;2023-02-15T07:51:56;128.30;2252.80
57030;DHT22;42920;45.306;20.448;2023-02-15T07:54:21;128.20;2252.80
57030;DHT22;42920;45.306;20.448;2023-02-15T07:56:47;128.20;2252.80
57030;DHT22;42920;45.306;20.448;2023-02-15T07:59:13;128.40;2252.80
57030;DHT22;42920;45.306;20.448;2023-02-15T08:01:38;128.60;2252.80
57030;DHT22;42920;45.306;20.448;2023-02-15T08:04:06;128.60;2252.80
57030;DHT22;42920;45.306;20.448;2023-02-15T08:06:34;128.80;2252.80
57030;DHT22;42920;45.306;20.448;2023-02-15T08:09:02;128.90;2252.80
57030;DHT22;42920;45.306;20.448;2023-02-15T08:11:31;153.60;2252.80
57030;DHT22;42920;45.306;20.448;2023-02-15T08:14:19;153.70;2252.80
57030;DHT22;42920;45.306;20.448;2023-02-15T08:16:55;153.80;2252.80
57030;DHT22;42920;45.306;20.448;2023-02-15T08:19:27;153.80;2252.80
57030;DHT22;42920;45.306;20.448;2023-02-15T08:21:59;153.70;2252.80
57030;DHT22;42920;45.306;20.448;2023-02-15T08:24:30;153.70;2252.80
57030;DHT22;42920;45.306;20.448;2023-02-15T08:26:56;153.70;2252.80
57030;DHT22;42920;45.306;20.448;2023-02-15T08:29:26;153.60;2252.80
57030;DHT22;42920;45.306;20.448;2023-02-15T08:32:01;153.80;2252.80
57030;DHT22;42920;45.306;20.448;2023-02-15T08:34:35;153.80;2252.80
57030;DHT22;42920;45.306;20.448;2023-02-15T08:37:02;154.00;2252.80
57030;DHT22;42920;45.306;20.448;2023-02-15T08:39:28;154.10;2252.80
57030;DHT22;42920;45.306;20.448;2023-02-15T08:41:54;154.30;2252.80
57030;DHT22;42920;45.306;20.448;2023-02-15T08:44:20;154.40;2252.80
57030;DHT22;42920;45.306;20.448;2023-02-15T08:46:46;154.40;2252.80
57030;DHT22;42920;45.306;20.448;2023-02-15T08:49:16;154.40;2252.80
57030;DHT22;42920;45.306;20.448;2023-02-15T08:51:42;154.50;2252.80
57030;DHT22;42920;45.306;20.448;2023-02-15T08:54:09;154.50;2252.80
57030;DHT22;42920;45.306;20.448;2023-02-15T08:56:38;179.20;2252.80
57030;DHT22;42920;45.306;20.448;2023-02-15T08:59:05;179.30;2252.80
57030;DHT22;42920;45.306;20.448;2023-02-15T09:01:33;179.30;2252.80
57030;DHT22;42920;45.306;20.448;2023-02-15T09:04:01;179.40;2252.80
57030;DHT22;42920;45.306;20.448;2023-02-15T09:06:28;179.30;2252.80
57030;DHT22;42920;45.306;20.448;2023-02-15T09:08:54;179.40;2252.80
57030;DHT22;42920;45.306;20.448;2023-02-15T09:11:28;179.50;2252.80
57030;DHT22;42920;45.306;20.448;2023-02-15T09:13:58;179.60;2252.80
57030;DHT22;42920;45.306;20.448;2023-02-15T09:16:26;179.60;2252.80
57030;DHT22;42920;45.306;20.448;2023-02-15T09:18:52;179.70;2252.80
57030;DHT22;42920;45.306;20.448;2023-02-15T09:21:21;179.80;2252.80
57030;DHT22;42920;45.306;20.448;2023-02-15T09:23:50;180.00;2252.80
57030;DHT22;42920;45.306;20.448;2023-02-15T09:26:18;180.10;2252.80
57030;DHT22;42920;45.306;20.448;2023-02-15T09:28:44;204.80;2252.80
57030;DHT22;42920;45.306;20.448;2023-02-15T09:31:18;205.00;2252.80
57030;DHT22;42920;45.306;20.448;2023-02-15T09:33:46;205.10;2252.80
57030;DHT22;42920;45.306;20.448;2023-02-15T09:36:16;205.30;2252.80
57030;DHT22;42920;45.306;20.448;2023-02-15T09:38:43;205.30;2252.80
57030;DHT22;42920;45.306;20.448;2023-02-15T09:44:15;205.60;2252.80
57030;DHT22;42920;45.306;20.448;2023-02-15T09:52:21;230.70;2252.80
57030;DHT22;42920;45.306;20.448;2023-02-15T10:00:21;231.20;2252.80
57030;DHT22;42920;45.306;20.448;2023-02-15T10:14:13;256.80;2252.80
57030;DHT22;42920;45.306;20.448;2023-02-15T10:17:04;256.90;2252.80
57030;DHT22;42920;45.306;20.448;2023-02-15T10:19:48;281.80;2278.40
57030;DHT22;42920;45.306;20.448;2023-02-15T10:23:00;282.00;2278.40
57030;DHT22;42920;45.306;20.448;2023-02-15T10:28:19;282.30;2176.00
57030;DHT22;42920;45.306;20.448;2023-02-15T10:30:50;282.20;2201.60
57030;DHT22;42920;45.306;20.448;2023-02-15T10:33:30;282.30;2124.80
57030;DHT22;42920;45.306;20.448;2023-02-15T10:45:10;307.20;1945.60
57030;DHT22;42920;45.306;20.448;2023-02-15T11:06:19;333.40;1766.40
57030;DHT22;42920;45.306;20.448;2023-02-15T11:08:59;333.60;1740.80
57030;DHT22;42920;45.306;20.448;2023-02-15T11:11:32;333.40;1715.20
57030;DHT22;42920;45.306;20.448;2023-02-15T11:14:04;333.70;1715.20
57030;DHT22;42920;45.306;20.448;2023-02-15T11:16:37;358.40;1689.60
57030;DHT22;42920;45.306;20.448;2023-02-15T11:19:11;358.70;1664.00
57030;DHT22;42920;45.306;20.448;2023-02-15T11:21:44;358.80;1638.40
57030;DHT22;42920;45.306;20.448;2023-02-15T11:24:17;358.80;1612.80
57030;DHT22;42920;45.306;20.448;2023-02-15T11:26:54;358.90;1638.40
57030;DHT22;42920;45.306;20.448;2023-02-15T11:29:40;358.90;1612.80
57030;DHT22;42920;45.306;20.448;2023-02-15T11:32:26;358.70;1638.40
57030;DHT22;42920;45.306;20.448;2023-02-15T11:37:20;359.00;1612.80
57030;DHT22;42920;45.306;20.448;2023-02-15T11:39:47;358.70;1638.40
57030;DHT22;42920;45.306;20.448;2023-02-15T11:42:20;358.70;1638.40
57030;DHT22;42920;45.306;20.448;2023-02-15T11:47:38;359.20;1587.20
57030;DHT22;42920;45.306;20.448;2023-02-15T11:50:04;359.20;1587.20
57030;DHT22;42920;45.306;20.448;2023-02-15T11:52:31;384.10;1561.60
57030;DHT22;42920;45.306;20.448;2023-02-15T11:54:57;384.30;1561.60
57030;DHT22;42920;45.306;20.448;2023-02-15T11:57:27;384.30;1536.00
57030;DHT22;42920;45.306;20.448;2023-02-15T12:02:37;384.10;1510.40
57030;DHT22;42920;45.306;20.448;2023-02-15T12:05:11;384.20;1536.00
57030;DHT22;42920;45.306;20.448;2023-02-15T12:07:46;384.40;1536.00
57030;DHT22;42920;45.306;20.448;2023-02-15T12:10:24;384.10;1510.40
57030;DHT22;42920;45.306;20.448;2023-02-15T12:13:12;384.00;1536.00
57030;DHT22;42920;45.306;20.448;2023-02-15T12:15:38;384.00;1536.00
57030;DHT22;42920;45.306;20.448;2023-02-15T12:20:46;384.00;1510.40
57030;DHT22;42920;45.306;20.448;2023-02-15T12:23:15;359.10;1510.40
57030;DHT22;42920;45.306;20.448;2023-02-15T12:25:42;359.30;1510.40
57030;DHT22;42920;45.306;20.448;2023-02-15T12:28:35;384.00;1536.00
57030;DHT22;42920;45.306;20.448;2023-02-15T12:31:07;359.30;1536.00
57030;DHT22;42920;45.306;20.448;2023-02-15T12:33:38;359.30;1536.00
57030;DHT22;42920;45.306;20.448;2023-02-15T12:36:24;359.20;1536.00
57030;DHT22;42920;45.306;20.448;2023-02-15T12:39:21;359.10;1561.60
57030;DHT22;42920;45.306;20.448;2023-02-15T12:44:25;359.20;1536.00
57030;DHT22;42920;45.306;20.448;2023-02-15T12:47:03;359.00;1561.60
57030;DHT22;42920;45.306;20.448;2023-02-15T12:49:37;359.10;1561.60
57030;DHT22;42920;45.306;20.448;2023-02-15T12:54:44;359.00;1561.60
57030;DHT22;42920;45.306;20.448;2023-02-15T12:59:58;358.80;1587.20
57030;DHT22;42920;45.306;20.448;2023-02-15T13:02:25;358.70;1587.20
57030;DHT22;42920;45.306;20.448;2023-02-15T13:04:51;358.80;1587.20
57030;DHT22;42920;45.306;20.448;2023-02-15T13:07:18;358.70;1612.80
57030;DHT22;42920;45.306;20.448;2023-02-15T13:09:44;358.70;1587.20
57030;DHT22;42920;45.306;20.448;2023-02-15T13:12:23;358.80;1587.20
57030;DHT22;42920;45.306;20.448;2023-02-15T13:14:53;358.70;1561.60
57030;DHT22;42920;45.306;20.448;2023-02-15T13:17:32;358.80;1561.60
57030;DHT22;42920;45.306;20.448;2023-02-15T13:20:10;358.70;1587.20
57030;DHT22;42920;45.306;20.448;2023-02-15T13:22:44;358.60;1587.20
57030;DHT22;42920;45.306;20.448;2023-02-15T13:25:20;358.50;1587.20
57030;DHT22;42920;45.306;20.448;2023-02-15T13:27:51;358.50;1612.80
57030;DHT22;42920;45.306;20.448;2023-02-15T13:30:35;333.70;1612.80
57030;DHT22;42920;45.306;20.448;2023-02-15T13:33:05;333.70;1612.80
57030;DHT22;42920;45.306;20.448;2023-02-15T13:36:04;333.70;1638.40
57030;DHT22;42920;45.306;20.448;2023-02-15T13:39:09;333.60;1638.40
57030;DHT22;42920;45.306;20.448;2023-02-15T13:41:39;333.60;1638.40
57030;DHT22;42920;45.306;20.448;2023-02-15T13:44:15;333.50;1638.40
57030;DHT22;42920;45.306;20.448;2023-02-15T13:49:24;333.30;1689.60
57030;DHT22;42920;45.306;20.448;2023-02-15T14:00:15;332.90;1715.20
57030;DHT22;42920;45.306;20.448;2023-02-15T14:22:41;307.90;1766.40
57030;DHT22;42920;45.306;20.448;2023-02-15T14:25:28;307.80;1766.40
57030;DHT22;42920;45.306;20.448;2023-02-15T14:30:39;307.70;1792.00
57030;DHT22;42920;45.306;20.448;2023-02-15T14:35:46;307.70;1766.40
57030;DHT22;42920;45.306;20.448;2023-02-15T14:41:28;307.60;1792.00
57030;DHT22;42920;45.306;20.448;2023-02-15T14:49:37;307.60;1817.60
57030;DHT22;42920;45.306;20.448;2023-02-15T14:52:11;307.60;1817.60
57030;DHT22;42920;45.306;20.448;2023-02-15T15:05:16;307.40;1843.20
57030;DHT22;42920;45.306;20.448;2023-02-15T15:08:00;307.30;1843.20
57030;DHT22;42920;45.306;20.448;2023-02-15T15:10:37;307.30;1843.20
57030;DHT22;42920;45.306;20.448;2023-02-15T15:15:56;307.40;1843.20
57030;DHT22;42920;45.306;20.448;2023-02-15T15:18:45;307.40;1843.20
57030;DHT22;42920;45.306;20.448;2023-02-15T15:21:11;307.30;1868.80
57030;DHT22;42920;45.306;20.448;2023-02-15T15:23:56;282.50;1868.80
57030;DHT22;42920;45.306;20.448;2023-02-15T15:26:30;282.50;1894.40
57030;DHT22;42920;45.306;20.448;2023-02-15T15:29:00;282.50;1920.00
57030;DHT22;42920;45.306;20.448;2023-02-15T15:31:43;282.40;1945.60
57030;DHT22;42920;45.306;20.448;2023-02-15T15:34:50;282.50;1920.00
57030;DHT22;42920;45.306;20.448;2023-02-15T15:48:38;282.20;1945.60
57030;DHT22;42920;45.306;20.448;2023-02-15T15:51:39;282.10;1971.20
57030;DHT22;42920;45.306;20.448;2023-02-15T15:54:06;282.00;1996.80
57030;DHT22;42920;45.306;20.448;2023-02-15T15:56:38;281.90;2048.00
57030;DHT22;42920;45.306;20.448;2023-02-15T15:59:06;281.80;2073.60
57030;DHT22;42920;45.306;20.448;2023-02-15T16:01:42;281.60;2099.20
57030;DHT22;42920;45.306;20.448;2023-02-15T16:04:26;256.90;2073.60
57030;DHT22;42920;45.306;20.448;2023-02-15T16:06:52;256.90;2073.60
57030;DHT22;42920;45.306;20.448;2023-02-15T16:09:24;256.80;2124.80
57030;DHT22;42920;45.306;20.448;2023-02-15T16:11:59;256.60;2150.40
57030;DHT22;42920;45.306;20.448;2023-02-15T16:14:29;256.50;2150.40
57030;DHT22;42920;45.306;20.448;2023-02-15T16:16:58;256.50;2176.00
57030;DHT22;42920;45.306;20.448;2023-02-15T16:19:28;256.40;2201.60
57030;DHT22;42920;45.306;20.448;2023-02-15T16:21:57;256.30;2201.60
57030;DHT22;42920;45.306;20.448;2023-02-15T16:27:22;256.20;2252.80
57030;DHT22;42920;45.306;20.448;2023-02-15T16:29:50;256.10;2252.80
57030;DHT22;42920;45.306;20.448;2023-02-15T16:32:27;231.30;2252.80
57030;DHT22;42920;45.306;20.448;2023-02-15T16:37:24;231.30;2252.80
57030;DHT22;42920;45.306;20.448;2023-02-15T16:39:53;231.30;2252.80
57030;DHT22;42920;45.306;20.448;2023-02-15T16:42:19;231.30;2252.80
57030;DHT22;42920;45.306;20.448;2023-02-15T16:44:50;231.30;2252.80
57030;DHT22;42920;45.306;20.448;2023-02-15T16:47:28;231.30;2252.80
57030;DHT22;42920;45.306;20.448;2023-02-15T16:49:59;231.20;2252.80
57030;DHT22;42920;45.306;20.448;2023-02-15T16:52:27;231.20;2252.80
57030;DHT22;42920;45.306;20.448;2023-02-15T16:55:04;231.10;2252.80
57030;DHT22;42920;45.306;20.448;2023-02-15T16:57:43;231.10;2252.80
57030;DHT22;42920;45.306;20.448;2023-02-15T17:00:19;231.00;2252.80
57030;DHT22;42920;45.306;20.448;2023-02-15T17:02:59;230.90;2252.80
57030;DHT22;42920;45.306;20.448;2023-02-15T17:05:40;230.80;2252.80
57030;DHT22;42920;45.306;20.448;2023-02-15T17:08:27;230.70;2252.80
57030;DHT22;42920;45.306;20.448;2023-02-15T17:13:31;230.60;2252.80
57030;DHT22;42920;45.306;20.448;2023-02-15T17:18:38;205.70;2252.80
57030;DHT22;42920;45.306;20.448;2023-02-15T17:21:23;205.70;2252.80
57030;DHT22;42920;45.306;20.448;2023-02-15T17:23:51;205.70;2252.80
57030;DHT22;42920;45.306;20.448;2023-02-15T17:26:26;205.60;2252.80
57030;DHT22;42920;45.306;20.448;2023-02-15T17:31:47;205.40;2252.80
57030;DHT22;42920;45.306;20.448;2023-02-15T17:35:19;205.30;2252.80
57030;DHT22;42920;45.306;20.448;2023-02-15T17:42:42;205.20;2252.80
57030;DHT22;42920;45.306;20.448;2023-02-15T17:45:07;205.10;2252.80
57030;DHT22;42920;45.306;20.448;2023-02-15T17:47:33;205.00;2252.80
57030;DHT22;42920;45.306;20.448;2023-02-15T17:49:59;180.10;2252.80
57030;DHT22;42920;45.306;20.448;2023-02-15T17:52:28;180.10;2252.80
57030;DHT22;42920;45.306;20.448;2023-02-15T17:54:54;180.10;2252.80
57030;DHT22;42920;45.306;20.448;2023-02-15T17:57:38;180.10;2252.80
57030;DHT22;42920;45.306;20.448;2023-02-15T18:00:05;180.10;2252.80
57030;DHT22;42920;45.306;20.448;2023-02-15T18:02:50;180.10;2252.80
57030;DHT22;42920;45.306;20.448;2023-02-15T18:05:34;180.10;2252.80
57030;DHT22;42920;45.306;20.448;2023-02-15T18:08:21;180.00;2252.80
57030;DHT22;42920;45.306;20.448;2023-02-15T18:11:09;180.00;2252.80
57030;DHT22;42920;45.306;20.448;2023-02-15T18:13:53;180.00;2252.80
57030;DHT22;42920;45.306;20.448;2023-02-15T18:16:24;179.90;2252.80
57030;DHT22;42920;45.306;20.448;2023-02-15T18:18:51;179.60;2252.80
57030;DHT22;42920;45.306;20.448;2023-02-15T18:21:17;179.50;2252.80
57030;DHT22;42920;45.306;20.448;2023-02-15T18:23:43;179.50;2252.80